Main page
METAR-TAF:

METAR-TAF

Airports :

Leeuwarden Air Base

Leeuwarden, Netherlands

latitude: 53-13N, longitude: 005-46E, elevation: 1 m

Current weather observation

The report was made 35 minutes ago, at 02:25 UTC
Wind 4 kt from the East/Northeast
Temperature 13°C
Humidity 100%
Pressure 1018 hPa
Visibility: 6000 m
mist,

METAR: EHLW 250225Z AUTO 07004KT 6000 BR NCD 13/13 Q1018 WHT

Time: 05:00 (03:00 UTC)

Forecast

The report was made 2 hours and 27 minutes ago, at 00:33 UTC
Forecast valid from 25 at 01 UTC to 25 at 13 UTC
Wind 6 kt from the East/Northeast
Visibility 10 km or more
no clouds below 1500 m and no cumulonimbus

TAF: EHLW 250033Z 2501/2513 07006KT CAVOK

Weather observations and forecasts of more than 4000 airports (METAR and TAF reports).

The available stations are represented by yellow and red dots on the map.

Hover mouse over dot to see the name of the station.

Then click to see weather observations and forecasts.

To change the map : click on the green buttons with a black cross to zoom in, on the green button with a dash to zoom out, or on the green arrows for adjacent maps.


METAR-TAF: